createdAt,value
2023-04-22T00:01:59.219Z,16.67
2023-04-22T00:04:27.258Z,17.08
2023-04-22T00:06:56.883Z,17.05
2023-04-22T00:09:25.281Z,17.80
2023-04-22T00:11:53.556Z,18.45
2023-04-22T00:14:21.625Z,18.50
2023-04-22T00:16:49.572Z,17.88
2023-04-22T00:19:17.552Z,19.17
2023-04-22T00:21:47.647Z,18.58
2023-04-22T00:24:17.018Z,19.80
2023-04-22T00:26:44.932Z,19.55
2023-04-22T00:29:12.911Z,18.77
2023-04-22T00:31:40.924Z,19.77
2023-04-22T00:34:08.870Z,19.38
2023-04-22T00:36:36.777Z,18.40
2023-04-22T00:39:06.397Z,18.67
2023-04-22T00:41:36.348Z,18.33
2023-04-22T00:44:05.417Z,18.27
2023-04-22T00:46:35.583Z,18.52
2023-04-22T00:49:03.775Z,18.15
2023-04-22T00:51:31.769Z,18.38
2023-04-22T00:54:01.787Z,18.00
2023-04-22T00:56:30.955Z,17.23
2023-04-22T00:59:00.840Z,18.20
2023-04-22T01:01:29.290Z,17.30
2023-04-22T01:03:57.858Z,18.02
2023-04-22T01:06:26.841Z,18.00
2023-04-22T01:08:55.630Z,18.38
2023-04-22T01:11:23.738Z,17.17
2023-04-22T01:13:51.920Z,18.65
2023-04-22T01:16:21.681Z,17.60
2023-04-22T01:18:49.731Z,18.80
2023-04-22T01:21:19.438Z,18.23
2023-04-22T01:23:49.340Z,18.58
2023-04-22T01:26:17.306Z,17.90
2023-04-22T01:28:45.571Z,18.60
2023-04-22T01:31:13.713Z,17.90
2023-04-22T01:33:41.722Z,17.13
2023-04-22T01:36:12.834Z,17.15
2023-04-22T01:38:41.193Z,17.95
2023-04-22T01:41:10.704Z,16.85
2023-04-22T01:43:40.321Z,17.38
2023-04-22T01:46:09.471Z,17.77
2023-04-22T01:48:37.565Z,17.55
2023-04-22T01:51:05.639Z,16.80
2023-04-22T01:53:33.663Z,16.63
2023-04-22T01:56:01.740Z,15.95
2023-04-22T01:58:31.899Z,16.33
2023-04-22T02:00:59.817Z,15.52
2023-04-22T02:03:27.905Z,15.70
2023-04-22T02:05:55.955Z,14.88
2023-04-22T02:08:23.974Z,15.25
2023-04-22T02:10:51.947Z,15.23
2023-04-22T02:13:19.924Z,14.00
2023-04-22T02:15:49.920Z,14.17
2023-04-22T02:18:19.579Z,13.57
2023-04-22T02:20:47.506Z,13.10
2023-04-22T02:23:15.542Z,12.52
2023-04-22T02:25:49.565Z,13.40
2023-04-22T02:28:17.520Z,12.43
2023-04-22T02:30:47.346Z,11.80
2023-04-22T02:33:16.660Z,12.20
2023-04-22T02:35:44.855Z,12.90
2023-04-22T02:38:12.866Z,12.45
2023-04-22T02:40:40.822Z,12.82
2023-04-22T02:43:08.771Z,13.13
2023-04-22T02:45:36.758Z,13.70
2023-04-22T02:48:04.947Z,13.00
2023-04-22T02:50:34.324Z,14.20
2023-04-22T02:53:02.274Z,13.63
2023-04-22T02:55:30.274Z,14.38
2023-04-22T02:57:58.274Z,14.63
2023-04-22T03:00:26.307Z,14.20
2023-04-22T03:02:54.465Z,14.30
2023-04-22T03:05:22.588Z,14.75
2023-04-22T03:07:52.087Z,15.48
2023-04-22T03:10:20.269Z,14.93
2023-04-22T03:12:48.284Z,15.25
2023-04-22T03:15:18.769Z,15.10
2023-04-22T03:17:48.610Z,15.50
2023-04-22T03:20:16.727Z,15.83
2023-04-22T03:22:44.635Z,16.40
2023-04-22T03:25:14.134Z,15.27
2023-04-22T03:27:42.099Z,16.13
2023-04-22T03:30:10.706Z,16.67
2023-04-22T03:32:38.840Z,15.85
2023-04-22T03:35:07.720Z,16.33
2023-04-22T03:37:35.719Z,17.35
2023-04-22T03:40:04.093Z,17.02
2023-04-22T03:42:33.376Z,17.90
2023-04-22T03:45:01.336Z,17.60
2023-04-22T03:47:29.412Z,17.90
2023-04-22T03:49:57.567Z,16.67
2023-04-22T03:52:25.964Z,17.50
2023-04-22T03:54:53.940Z,19.55
2023-04-22T03:57:21.936Z,18.50
2023-04-22T03:59:51.297Z,19.05
2023-04-22T04:02:19.387Z,19.63
2023-04-22T04:04:47.572Z,18.40
2023-04-22T04:07:16.103Z,19.67
2023-04-22T04:09:44.021Z,19.83
2023-04-22T04:12:11.959Z,18.63
2023-04-22T04:14:39.896Z,18.90
2023-04-22T04:17:09.990Z,18.83
2023-04-22T04:19:39.090Z,20.30
2023-04-22T04:22:07.884Z,20.23
2023-04-22T04:24:37.049Z,19.50
2023-04-22T04:27:05.076Z,19.70
2023-04-22T04:29:33.032Z,19.98
2023-04-22T04:32:00.985Z,20.73
2023-04-22T04:34:30.274Z,21.40
2023-04-22T04:36:58.775Z,21.75
2023-04-22T04:39:28.572Z,21.70
2023-04-22T04:41:58.745Z,22.25
2023-04-22T04:44:27.486Z,20.40
2023-04-22T04:46:56.140Z,21.67
2023-04-22T04:49:24.221Z,22.13
2023-04-22T04:51:53.554Z,21.27
2023-04-22T04:54:21.557Z,21.67
2023-04-22T04:56:49.476Z,20.45
2023-04-22T04:59:17.340Z,22.10
2023-04-22T05:01:45.585Z,21.92
2023-04-22T05:04:13.850Z,21.88
2023-04-22T05:06:41.981Z,22.40
2023-04-22T05:09:11.475Z,22.70
2023-04-22T05:11:39.438Z,21.50
2023-04-22T05:14:07.460Z,21.52
2023-04-22T05:16:35.613Z,21.80
2023-04-22T05:19:03.560Z,21.02
2023-04-22T05:21:31.533Z,20.92
2023-04-22T05:23:59.488Z,21.00
2023-04-22T05:26:28.791Z,22.10
2023-04-22T05:28:56.781Z,22.20
2023-04-22T05:31:24.801Z,21.23
2023-04-22T05:33:52.735Z,20.13
2023-04-22T05:36:20.698Z,21.23
2023-04-22T05:38:48.651Z,19.90
2023-04-22T05:41:16.784Z,21.93
2023-04-22T05:43:46.365Z,20.30
2023-04-22T05:46:14.423Z,21.52
2023-04-22T05:48:42.368Z,20.95
2023-04-22T05:51:10.348Z,20.00
2023-04-22T05:53:38.408Z,21.02
2023-04-22T05:56:07.041Z,19.85
2023-04-22T05:58:35.120Z,21.37
2023-04-22T06:01:04.749Z,21.33
2023-04-22T06:03:32.914Z,20.38
2023-04-22T06:06:01.626Z,20.98
2023-04-22T06:08:31.080Z,21.48
2023-04-22T06:10:59.068Z,20.83
2023-04-22T06:13:27.803Z,21.50
2023-04-22T06:15:55.890Z,20.48
2023-04-22T06:18:26.504Z,20.90
2023-04-22T06:20:56.013Z,22.45
2023-04-22T06:23:23.967Z,22.67
2023-04-22T06:25:51.898Z,21.85
2023-04-22T06:28:19.870Z,22.25
2023-04-22T06:30:47.912Z,22.57
2023-04-22T06:33:15.967Z,21.00
2023-04-22T06:35:45.548Z,21.45
2023-04-22T06:38:13.440Z,22.10
2023-04-22T06:40:41.457Z,21.55
2023-04-22T06:43:09.458Z,22.33
2023-04-22T06:45:37.689Z,21.60
2023-04-22T06:48:05.721Z,22.10
2023-04-22T06:50:33.674Z,23.08
2023-04-22T06:53:02.909Z,22.63
2023-04-22T06:55:30.890Z,23.40
2023-04-22T06:57:58.828Z,23.27
2023-04-22T07:00:28.150Z,23.25
2023-04-22T07:02:56.202Z,22.90
2023-04-22T07:05:24.153Z,22.92
2023-04-22T07:07:52.101Z,22.55
2023-04-22T07:10:21.631Z,23.30
2023-04-22T07:12:49.543Z,24.60
2023-04-22T07:15:17.582Z,23.38
2023-04-22T07:17:45.647Z,22.73
2023-04-22T07:20:13.733Z,22.83
2023-04-22T07:22:41.737Z,24.20
2023-04-22T07:25:10.645Z,23.05
2023-04-22T07:27:40.246Z,22.65
2023-04-22T07:30:09.779Z,23.13
2023-04-22T07:32:37.714Z,24.20
2023-04-22T07:35:06.441Z,22.88
2023-04-22T07:37:34.401Z,23.03
2023-04-22T07:40:02.593Z,22.55
2023-04-22T07:42:30.924Z,24.17
2023-04-22T07:45:00.260Z,22.80
2023-04-22T07:47:28.230Z,22.17
2023-04-22T07:49:56.219Z,23.25
2023-04-22T07:52:24.200Z,24.88
2023-04-22T07:54:52.752Z,22.38
2023-04-22T07:57:22.190Z,26.20
2023-04-22T07:59:50.192Z,25.50
2023-04-22T08:02:19.673Z,24.45
2023-04-22T08:04:47.819Z,23.83
2023-04-22T08:07:32.660Z,25.20
2023-04-22T08:10:01.232Z,24.17
2023-04-22T08:12:29.275Z,25.15
2023-04-22T08:14:58.021Z,24.75
2023-04-22T08:17:27.998Z,23.30
2023-04-22T08:19:55.941Z,23.50
2023-04-22T08:22:23.971Z,23.05
2023-04-22T08:24:51.967Z,22.27
2023-04-22T08:27:21.943Z,22.50
2023-04-22T08:29:49.909Z,22.58
2023-04-22T08:32:19.696Z,21.58
2023-04-22T08:34:51.807Z,21.03
2023-04-22T08:37:21.930Z,20.20
2023-04-22T08:39:50.018Z,20.23
2023-04-22T08:42:18.255Z,19.50
2023-04-22T08:44:46.634Z,18.88
2023-04-22T08:47:15.833Z,18.73
2023-04-22T08:49:44.751Z,18.15
2023-04-22T08:52:15.483Z,17.42
2023-04-22T08:54:43.559Z,16.58
2023-04-22T08:57:12.047Z,15.43
2023-04-22T08:59:41.288Z,16.10
2023-04-22T09:02:17.616Z,17.20
2023-04-22T09:04:47.202Z,16.60
2023-04-22T09:07:23.099Z,15.15
2023-04-22T09:09:51.187Z,14.35
2023-04-22T09:12:19.316Z,12.10
2023-04-22T09:14:47.469Z,12.18
2023-04-22T09:17:18.586Z,14.23
2023-04-22T09:19:46.997Z,13.75
2023-04-22T09:22:16.323Z,12.80
2023-04-22T09:24:46.048Z,13.18
2023-04-22T09:27:14.050Z,13.20
2023-04-22T09:29:49.777Z,12.43
2023-04-22T09:32:17.804Z,12.25
2023-04-22T09:34:51.938Z,11.60
2023-04-22T09:37:24.028Z,12.10
2023-04-22T09:39:52.920Z,10.98
2023-04-22T09:42:21.514Z,11.13
2023-04-22T09:44:52.627Z,10.70
2023-04-22T09:47:21.132Z,10.73
2023-04-22T09:49:49.577Z,10.90
2023-04-22T09:52:27.135Z,10.30
2023-04-22T09:54:55.846Z,10.10
2023-04-22T09:57:24.766Z,9.82
2023-04-22T09:59:53.003Z,10.27
2023-04-22T10:02:30.777Z,10.30
2023-04-22T10:05:00.338Z,11.50
2023-04-22T10:07:31.770Z,11.50
2023-04-22T10:10:00.031Z,10.60
2023-04-22T10:12:35.371Z,10.70
2023-04-22T10:15:04.110Z,11.35
2023-04-22T10:17:34.857Z,12.27
2023-04-22T10:20:06.655Z,11.65
2023-04-22T10:22:36.717Z,11.10
2023-04-22T10:25:04.991Z,10.95
2023-04-22T10:27:32.964Z,12.40
2023-04-22T10:30:01.837Z,11.07
2023-04-22T10:32:30.797Z,11.57
2023-04-22T10:35:10.386Z,11.40
2023-04-22T10:37:43.308Z,11.40
2023-04-22T10:40:16.191Z,11.77
2023-04-22T10:42:48.356Z,10.50
2023-04-22T10:45:16.738Z,11.50
2023-04-22T10:47:46.441Z,11.00
2023-04-22T10:50:23.878Z,11.10
2023-04-22T10:52:56.267Z,10.52
2023-04-22T10:55:24.713Z,11.38
2023-04-22T10:57:54.332Z,12.20
2023-04-22T11:00:38.214Z,12.27
2023-04-22T11:03:16.946Z,12.35
2023-04-22T11:05:45.903Z,12.93
2023-04-22T11:08:24.212Z,13.07
2023-04-22T11:10:54.056Z,13.73
2023-04-22T11:13:23.247Z,14.40
2023-04-22T11:15:54.039Z,14.27
2023-04-22T11:18:24.169Z,14.15
2023-04-22T11:20:53.677Z,13.73
2023-04-22T11:23:25.313Z,13.20
2023-04-22T11:26:00.474Z,14.50
2023-04-22T11:28:28.503Z,15.27
2023-04-22T11:31:06.467Z,15.38
2023-04-22T11:33:35.458Z,15.90
2023-04-22T11:36:03.513Z,16.00
2023-04-22T11:38:33.110Z,16.50
2023-04-22T11:41:01.144Z,16.08
2023-04-22T11:43:29.075Z,16.25
2023-04-22T11:45:58.105Z,16.70
2023-04-22T11:48:26.271Z,16.00
2023-04-22T11:51:10.465Z,16.60
2023-04-22T11:53:51.610Z,16.58
2023-04-22T11:56:19.536Z,15.18
2023-04-22T11:58:48.863Z,15.70
2023-04-22T12:01:16.788Z,16.40
2023-04-22T12:03:44.963Z,15.43
2023-04-22T12:06:12.965Z,14.65
2023-04-22T12:08:44.543Z,15.40
2023-04-22T12:11:13.391Z,15.10
2023-04-22T12:13:46.843Z,17.65
2023-04-22T12:16:19.527Z,20.17
2023-04-22T12:18:50.875Z,22.08
2023-04-22T12:21:20.591Z,24.08
2023-04-22T12:23:51.689Z,24.75
2023-04-22T12:26:23.731Z,25.50
2023-04-22T12:28:54.063Z,24.17
2023-04-22T12:31:22.526Z,24.65
2023-04-22T12:33:50.807Z,23.88
2023-04-22T12:36:20.871Z,24.95
2023-04-22T12:38:51.070Z,25.83
2023-04-22T12:41:19.167Z,24.10
2023-04-22T12:43:47.709Z,23.58
2023-04-22T12:46:15.818Z,24.63
2023-04-22T12:48:43.891Z,24.60
2023-04-22T12:51:11.881Z,26.20
2023-04-22T12:53:39.847Z,27.05
2023-04-22T12:56:09.259Z,27.15
2023-04-22T12:58:37.266Z,26.27
2023-04-22T13:01:05.225Z,27.33
2023-04-22T13:03:33.320Z,27.15
2023-04-22T13:06:01.433Z,27.13
2023-04-22T13:08:29.799Z,26.80
2023-04-22T13:10:57.783Z,28.27
2023-04-22T13:13:27.193Z,27.02
2023-04-22T13:15:55.171Z,26.20
2023-04-22T13:18:23.814Z,27.27
2023-04-22T13:20:52.104Z,26.33
2023-04-22T13:23:21.762Z,26.75
2023-04-22T13:25:50.270Z,27.63
2023-04-22T13:28:18.211Z,27.60
2023-04-22T13:30:47.507Z,27.60
2023-04-22T13:33:15.631Z,28.67
2023-04-22T13:35:43.769Z,28.40
2023-04-22T13:38:11.791Z,28.90
2023-04-22T13:40:39.725Z,28.20
2023-04-22T13:43:09.398Z,28.65
2023-04-22T13:45:37.415Z,30.08
2023-04-22T13:48:06.964Z,30.75
2023-04-22T13:50:35.230Z,29.75
2023-04-22T13:53:03.968Z,29.85
2023-04-22T13:55:32.105Z,29.92
2023-04-22T13:58:01.133Z,30.33
2023-04-22T14:00:29.298Z,30.77
2023-04-22T14:02:57.561Z,30.85
2023-04-22T14:05:27.179Z,30.30
2023-04-22T14:07:55.694Z,29.50
2023-04-22T14:10:23.963Z,30.58
2023-04-22T14:12:52.485Z,31.60
2023-04-22T14:15:20.464Z,31.05
2023-04-22T14:17:49.589Z,31.10
2023-04-22T14:20:17.787Z,30.92
2023-04-22T14:22:47.162Z,29.85
2023-04-22T14:25:15.226Z,29.07
2023-04-22T14:27:43.727Z,30.03
2023-04-22T14:30:12.923Z,30.92
2023-04-22T14:32:41.010Z,31.88
2023-04-22T14:35:09.451Z,31.70
2023-04-22T14:37:37.526Z,31.70
2023-04-22T14:40:08.382Z,32.92
2023-04-22T14:42:36.895Z,32.28
2023-04-22T14:45:05.382Z,31.73
2023-04-22T14:47:33.349Z,32.72
2023-04-22T14:50:01.391Z,32.13
2023-04-22T14:52:29.442Z,33.60
2023-04-22T14:54:57.821Z,32.00
2023-04-22T14:57:28.319Z,33.85
2023-04-22T14:59:56.285Z,35.30
2023-04-22T15:02:24.489Z,36.92
2023-04-22T15:04:52.740Z,36.83
2023-04-22T15:07:20.934Z,34.70
2023-04-22T15:09:48.860Z,36.95
2023-04-22T15:12:16.894Z,38.60
2023-04-22T15:14:46.297Z,38.92
2023-04-22T15:17:14.282Z,35.83
2023-04-22T15:19:42.499Z,31.55
2023-04-22T15:22:12.085Z,32.03
2023-04-22T15:24:40.024Z,28.37
2023-04-22T15:27:08.792Z,29.08
2023-04-22T15:29:36.794Z,28.50
2023-04-22T15:32:06.689Z,30.42
2023-04-22T15:34:34.785Z,33.67
2023-04-22T15:37:02.819Z,35.58
2023-04-22T15:39:30.765Z,36.45
2023-04-22T15:41:58.662Z,40.17
2023-04-22T15:44:28.193Z,39.80
2023-04-22T15:46:57.865Z,41.50
2023-04-22T15:49:27.166Z,41.63
2023-04-22T15:51:55.178Z,36.90
2023-04-22T15:54:23.139Z,38.58
2023-04-22T15:56:51.066Z,36.35
2023-04-22T15:59:20.856Z,38.67
2023-04-22T16:01:50.785Z,37.78
2023-04-22T16:04:20.163Z,37.90
2023-04-22T16:06:50.873Z,36.50
2023-04-22T16:09:19.307Z,38.58
2023-04-22T16:11:47.277Z,35.38
2023-04-22T16:14:15.680Z,36.58
2023-04-22T16:16:44.732Z,36.97
2023-04-22T16:19:12.927Z,36.50
2023-04-22T16:21:40.889Z,35.78
2023-04-22T16:24:10.358Z,35.75
2023-04-22T16:26:38.391Z,37.55
2023-04-22T16:29:06.328Z,37.22
2023-04-22T16:31:35.030Z,36.88
2023-04-22T16:34:02.958Z,37.72
2023-04-22T16:36:31.029Z,38.60
2023-04-22T16:38:58.959Z,35.77
2023-04-22T16:41:28.534Z,38.20
2023-04-22T16:43:56.435Z,35.30
2023-04-22T16:46:24.434Z,37.80
2023-04-22T16:48:52.342Z,37.15
2023-04-22T16:51:20.299Z,36.97
2023-04-22T16:53:48.552Z,39.63
2023-04-22T16:56:16.487Z,38.10
2023-04-22T16:58:45.854Z,38.17
2023-04-22T17:01:13.973Z,37.50
2023-04-22T17:03:42.197Z,37.43
2023-04-22T17:06:15.286Z,38.13
2023-04-22T17:08:43.311Z,38.53
2023-04-22T17:11:12.216Z,38.37
2023-04-22T17:13:41.126Z,38.03
2023-04-22T17:16:11.067Z,39.67
2023-04-22T17:18:39.017Z,38.50
2023-04-22T17:21:07.141Z,37.33
2023-04-22T17:23:36.043Z,40.05
2023-04-22T17:26:03.992Z,38.87
2023-04-22T17:28:31.922Z,39.40
2023-04-22T17:31:00.090Z,42.22
2023-04-22T17:33:30.116Z,37.90
2023-04-22T17:35:58.109Z,37.47
2023-04-22T17:38:26.188Z,36.35
2023-04-22T17:40:54.347Z,36.10
2023-04-22T17:43:22.336Z,35.15
2023-04-22T17:45:50.262Z,35.10
2023-04-22T17:48:18.202Z,33.00
2023-04-22T17:50:47.620Z,31.75
2023-04-22T17:53:15.728Z,32.70
2023-04-22T17:55:44.520Z,33.58
2023-04-22T17:58:12.980Z,33.20
2023-04-22T18:00:40.947Z,32.60
2023-04-22T18:03:09.151Z,34.67
2023-04-22T18:05:42.924Z,33.95
2023-04-22T18:08:12.273Z,34.90
2023-04-22T18:10:40.990Z,35.00
2023-04-22T18:13:08.970Z,36.28
2023-04-22T18:15:36.834Z,33.53
2023-04-22T18:18:05.102Z,36.00
2023-04-22T18:20:34.104Z,34.55
2023-04-22T18:23:02.072Z,34.80
2023-04-22T18:25:31.418Z,34.97
2023-04-22T18:27:59.400Z,35.72
2023-04-22T18:30:27.416Z,35.70
2023-04-22T18:32:55.570Z,36.05
2023-04-22T18:35:23.549Z,35.40
2023-04-22T18:37:51.628Z,33.88
2023-04-22T18:40:21.157Z,35.70
2023-04-22T18:42:50.553Z,34.28
2023-04-22T18:45:18.531Z,34.10
2023-04-22T18:47:47.146Z,36.00
2023-04-22T18:50:15.240Z,35.40
2023-04-22T18:52:43.729Z,34.92
2023-04-22T18:55:11.714Z,34.25
2023-04-22T18:57:39.600Z,36.13
2023-04-22T19:00:10.918Z,35.47
2023-04-22T19:02:41.439Z,36.10
2023-04-22T19:05:11.151Z,35.00
2023-04-22T19:07:40.834Z,36.15
2023-04-22T19:10:10.746Z,36.60
2023-04-22T19:12:38.718Z,35.75
2023-04-22T19:15:09.706Z,36.73
2023-04-22T19:17:38.080Z,34.20
2023-04-22T19:20:08.201Z,36.65
2023-04-22T19:22:36.326Z,36.65
2023-04-22T19:25:06.418Z,37.17
2023-04-22T19:27:34.582Z,37.28
2023-04-22T19:30:02.632Z,37.42
2023-04-22T19:32:32.401Z,35.95
2023-04-22T19:35:03.652Z,36.23
2023-04-22T19:37:32.108Z,36.80
2023-04-22T19:40:00.053Z,37.90
2023-04-22T19:42:29.079Z,36.00
2023-04-22T19:44:59.009Z,38.20
2023-04-22T19:47:27.348Z,38.63
2023-04-22T19:49:57.960Z,39.20
2023-04-22T19:52:26.178Z,39.50
2023-04-22T19:54:56.150Z,36.43
2023-04-22T19:57:24.823Z,39.08
2023-04-22T19:59:54.060Z,39.13
2023-04-22T20:02:23.058Z,38.33
2023-04-22T20:04:51.381Z,38.67
2023-04-22T20:07:21.084Z,38.72
2023-04-22T20:09:50.399Z,47.60
2023-04-22T20:12:18.764Z,43.38
2023-04-22T20:14:47.064Z,42.43
2023-04-22T20:17:15.802Z,42.10
2023-04-22T20:19:45.027Z,42.28
2023-04-22T20:22:15.486Z,42.73
2023-04-22T20:24:46.631Z,42.03
2023-04-22T20:27:17.066Z,44.58
2023-04-22T20:29:46.194Z,42.60
2023-04-22T20:32:14.414Z,44.80
2023-04-22T20:34:42.788Z,43.80
2023-04-22T20:37:13.109Z,40.65
2023-04-22T20:39:44.593Z,38.80
2023-04-22T20:42:13.074Z,39.40
2023-04-22T20:44:41.299Z,41.03
2023-04-22T20:47:09.543Z,41.05
2023-04-22T20:49:40.395Z,38.88
2023-04-22T20:52:09.154Z,39.20
2023-04-22T20:54:37.552Z,39.53
2023-04-22T20:57:08.027Z,38.67
2023-04-22T20:59:36.331Z,39.17
2023-04-22T21:02:06.644Z,38.53
2023-04-22T21:04:35.639Z,37.22
2023-04-22T21:07:07.003Z,35.55
2023-04-22T21:09:35.530Z,35.95
2023-04-22T21:12:03.991Z,36.97
2023-04-22T21:14:33.871Z,37.08
2023-04-22T21:17:04.698Z,37.35
2023-04-22T21:19:34.355Z,36.70
2023-04-22T21:22:06.010Z,35.70
2023-04-22T21:24:35.984Z,35.53
2023-04-22T21:27:04.518Z,36.90
2023-04-22T21:29:34.669Z,36.20
2023-04-22T21:32:09.480Z,36.17
2023-04-22T21:34:38.272Z,36.03
2023-04-22T21:37:07.757Z,34.75
2023-04-22T21:39:36.040Z,34.88
2023-04-22T21:42:07.618Z,35.40
2023-04-22T21:44:38.390Z,35.73
2023-04-22T21:47:06.724Z,34.25
2023-04-22T21:49:34.753Z,35.45
2023-04-22T21:52:02.796Z,36.08
2023-04-22T21:54:30.828Z,34.78
2023-04-22T21:56:58.805Z,36.08
2023-04-22T21:59:26.769Z,36.25
2023-04-22T22:01:56.213Z,36.30
2023-04-22T22:04:24.289Z,37.95
2023-04-22T22:06:52.293Z,36.13
2023-04-22T22:09:20.321Z,35.65
2023-04-22T22:11:48.402Z,38.85
2023-04-22T22:14:16.509Z,39.72
2023-04-22T22:16:44.470Z,38.38
2023-04-22T22:19:14.408Z,40.00
2023-04-22T22:21:42.386Z,41.72
2023-04-22T22:24:10.563Z,39.83
2023-04-22T22:26:43.274Z,41.22
2023-04-22T22:29:15.454Z,41.72
2023-04-22T22:31:43.960Z,41.85
2023-04-22T22:34:13.308Z,43.05
2023-04-22T22:36:41.568Z,42.75
2023-04-22T22:39:11.920Z,42.25
2023-04-22T22:41:41.098Z,43.97
2023-04-22T22:44:11.172Z,43.05
2023-04-22T22:46:40.249Z,44.13
2023-04-22T22:49:08.330Z,43.88
2023-04-22T22:51:38.334Z,42.80
2023-04-22T22:54:06.760Z,43.15
2023-04-22T22:56:34.902Z,44.05
2023-04-22T22:59:02.853Z,43.05
2023-04-22T23:01:30.936Z,42.28
2023-04-22T23:03:59.107Z,41.55
2023-04-22T23:06:27.865Z,43.63
2023-04-22T23:08:57.326Z,43.22
2023-04-22T23:11:25.445Z,43.53
2023-04-22T23:13:53.499Z,43.08
2023-04-22T23:16:21.900Z,44.55
2023-04-22T23:18:51.212Z,44.30
2023-04-22T23:21:20.887Z,44.25
2023-04-22T23:23:49.004Z,43.60
2023-04-22T23:26:18.829Z,42.70
2023-04-22T23:28:47.515Z,41.67
2023-04-22T23:31:18.207Z,42.35
2023-04-22T23:33:50.531Z,41.38
2023-04-22T23:36:19.769Z,43.13
2023-04-22T23:38:47.743Z,41.97
2023-04-22T23:41:15.707Z,43.65
2023-04-22T23:43:44.948Z,43.05
2023-04-22T23:46:13.336Z,41.28
2023-04-22T23:48:41.454Z,43.28
2023-04-22T23:51:09.469Z,42.22
2023-04-22T23:53:37.415Z,40.90
2023-04-22T23:56:06.000Z,42.00
2023-04-22T23:58:34.341Z,44.08
